sensor_id;sensor_type;location;lat;lon;timestamp;temperature;humidity
78522;SHT31;67819;51.972;5.678;2023-03-21T00:01:15;11.6;78.6
78522;SHT31;67819;51.972;5.678;2023-03-21T00:03:44;11.6;78.7
78522;SHT31;67819;51.972;5.678;2023-03-21T00:06:14;11.6;78.7
78522;SHT31;67819;51.972;5.678;2023-03-21T00:08:43;11.6;78.7
78522;SHT31;67819;51.972;5.678;2023-03-21T00:11:12;11.6;78.9
78522;SHT31;67819;51.972;5.678;2023-03-21T00:13:42;11.6;79.0
78522;SHT31;67819;51.972;5.678;2023-03-21T00:16:13;11.6;79.2
78522;SHT31;67819;51.972;5.678;2023-03-21T00:18:43;11.6;79.2
78522;SHT31;67819;51.972;5.678;2023-03-21T00:21:16;11.5;79.2
78522;SHT31;67819;51.972;5.678;2023-03-21T00:23:45;11.5;79.2
78522;SHT31;67819;51.972;5.678;2023-03-21T00:26:14;11.5;79.3
78522;SHT31;67819;51.972;5.678;2023-03-21T00:28:43;11.5;79.2
78522;SHT31;67819;51.972;5.678;2023-03-21T00:31:12;11.5;79.3
78522;SHT31;67819;51.972;5.678;2023-03-21T00:33:41;11.5;79.3
78522;SHT31;67819;51.972;5.678;2023-03-21T00:36:11;11.5;79.3
78522;SHT31;67819;51.972;5.678;2023-03-21T00:38:41;11.5;79.2
78522;SHT31;67819;51.972;5.678;2023-03-21T00:41:11;11.5;79.2
78522;SHT31;67819;51.972;5.678;2023-03-21T00:43:41;11.5;79.3
78522;SHT31;67819;51.972;5.678;2023-03-21T00:46:09;11.4;79.4
78522;SHT31;67819;51.972;5.678;2023-03-21T00:48:38;11.4;79.3
78522;SHT31;67819;51.972;5.678;2023-03-21T00:51:13;11.4;79.2
78522;SHT31;67819;51.972;5.678;2023-03-21T00:53:46;11.4;79.4
78522;SHT31;67819;51.972;5.678;2023-03-21T00:56:15;11.4;79.4
78522;SHT31;67819;51.972;5.678;2023-03-21T00:58:44;11.4;79.3
78522;SHT31;67819;51.972;5.678;2023-03-21T01:01:12;11.4;79.3
78522;SHT31;67819;51.972;5.678;2023-03-21T01:03:41;11.4;79.3
78522;SHT31;67819;51.972;5.678;2023-03-21T01:06:15;11.4;79.1
78522;SHT31;67819;51.972;5.678;2023-03-21T01:08:46;11.4;79.1
78522;SHT31;67819;51.972;5.678;2023-03-21T01:11:18;11.4;79.0
78522;SHT31;67819;51.972;5.678;2023-03-21T01:13:48;11.4;79.0
78522;SHT31;67819;51.972;5.678;2023-03-21T01:16:17;11.4;78.8
78522;SHT31;67819;51.972;5.678;2023-03-21T01:18:46;11.4;78.8
78522;SHT31;67819;51.972;5.678;2023-03-21T01:21:15;11.4;78.6
78522;SHT31;67819;51.972;5.678;2023-03-21T01:23:43;11.4;78.4
78522;SHT31;67819;51.972;5.678;2023-03-21T01:26:13;11.4;78.3
78522;SHT31;67819;51.972;5.678;2023-03-21T01:28:44;11.4;78.1
78522;SHT31;67819;51.972;5.678;2023-03-21T01:31:15;11.4;78.0
78522;SHT31;67819;51.972;5.678;2023-03-21T01:33:44;11.4;77.8
78522;SHT31;67819;51.972;5.678;2023-03-21T01:36:16;11.4;78.1
78522;SHT31;67819;51.972;5.678;2023-03-21T01:38:47;11.4;77.9
78522;SHT31;67819;51.972;5.678;2023-03-21T01:41:20;11.4;77.8
78522;SHT31;67819;51.972;5.678;2023-03-21T01:43:53;11.4;77.8
78522;SHT31;67819;51.972;5.678;2023-03-21T01:46:27;11.4;77.8
78522;SHT31;67819;51.972;5.678;2023-03-21T01:49:02;11.4;77.7
78522;SHT31;67819;51.972;5.678;2023-03-21T01:51:35;11.4;77.7
78522;SHT31;67819;51.972;5.678;2023-03-21T01:54:10;11.4;77.7
78522;SHT31;67819;51.972;5.678;2023-03-21T01:56:45;11.4;77.7
78522;SHT31;67819;51.972;5.678;2023-03-21T01:59:18;11.5;77.8
78522;SHT31;67819;51.972;5.678;2023-03-21T02:01:50;11.5;77.8
78522;SHT31;67819;51.972;5.678;2023-03-21T02:04:19;11.5;77.8
78522;SHT31;67819;51.972;5.678;2023-03-21T02:06:57;11.5;77.9
78522;SHT31;67819;51.972;5.678;2023-03-21T02:09:30;11.5;78.1
78522;SHT31;67819;51.972;5.678;2023-03-21T02:12:00;11.5;78.0
78522;SHT31;67819;51.972;5.678;2023-03-21T02:14:32;11.5;77.9
78522;SHT31;67819;51.972;5.678;2023-03-21T02:17:11;11.5;77.8
78522;SHT31;67819;51.972;5.678;2023-03-21T02:26:29;11.5;77.7
78522;SHT31;67819;51.972;5.678;2023-03-21T02:29:11;11.5;77.7
78522;SHT31;67819;51.972;5.678;2023-03-21T02:31:50;11.5;77.8
78522;SHT31;67819;51.972;5.678;2023-03-21T02:34:40;11.5;77.8
78522;SHT31;67819;51.972;5.678;2023-03-21T02:37:20;11.5;77.9
78522;SHT31;67819;51.972;5.678;2023-03-21T02:40:00;11.5;78.0
78522;SHT31;67819;51.972;5.678;2023-03-21T02:42:46;11.5;77.9
78522;SHT31;67819;51.972;5.678;2023-03-21T02:45:20;11.5;77.9
78522;SHT31;67819;51.972;5.678;2023-03-21T02:47:53;11.5;77.9
78522;SHT31;67819;51.972;5.678;2023-03-21T02:50:28;11.5;77.9
78522;SHT31;67819;51.972;5.678;2023-03-21T02:53:03;11.5;77.8
78522;SHT31;67819;51.972;5.678;2023-03-21T02:55:35;11.5;77.9
78522;SHT31;67819;51.972;5.678;2023-03-21T02:58:09;11.5;77.9
78522;SHT31;67819;51.972;5.678;2023-03-21T03:00:40;11.5;78.0
78522;SHT31;67819;51.972;5.678;2023-03-21T03:03:10;11.4;77.9
78522;SHT31;67819;51.972;5.678;2023-03-21T03:05:44;11.4;77.9
78522;SHT31;67819;51.972;5.678;2023-03-21T03:08:22;11.4;78.1
78522;SHT31;67819;51.972;5.678;2023-03-21T03:11:05;11.4;78.1
78522;SHT31;67819;51.972;5.678;2023-03-21T03:13:52;11.4;78.2
78522;SHT31;67819;51.972;5.678;2023-03-21T03:16:32;11.4;78.3
78522;SHT31;67819;51.972;5.678;2023-03-21T03:19:09;11.4;78.3
78522;SHT31;67819;51.972;5.678;2023-03-21T03:21:43;11.4;78.3
78522;SHT31;67819;51.972;5.678;2023-03-21T03:24:19;11.4;78.3
78522;SHT31;67819;51.972;5.678;2023-03-21T03:26:54;11.4;78.4
78522;SHT31;67819;51.972;5.678;2023-03-21T03:29:26;11.4;78.5
78522;SHT31;67819;51.972;5.678;2023-03-21T03:32:00;11.4;78.5
78522;SHT31;67819;51.972;5.678;2023-03-21T03:34:32;11.4;78.4
78522;SHT31;67819;51.972;5.678;2023-03-21T03:37:08;11.4;78.3
78522;SHT31;67819;51.972;5.678;2023-03-21T03:39:42;11.5;78.3
78522;SHT31;67819;51.972;5.678;2023-03-21T03:42:17;11.5;78.2
78522;SHT31;67819;51.972;5.678;2023-03-21T03:44:49;11.5;78.1
78522;SHT31;67819;51.972;5.678;2023-03-21T03:47:22;11.5;77.9
78522;SHT31;67819;51.972;5.678;2023-03-21T03:49:59;11.5;77.8
78522;SHT31;67819;51.972;5.678;2023-03-21T03:52:33;11.5;77.8
78522;SHT31;67819;51.972;5.678;2023-03-21T03:55:03;11.4;77.7
78522;SHT31;67819;51.972;5.678;2023-03-21T03:57:32;11.4;77.8
78522;SHT31;67819;51.972;5.678;2023-03-21T04:00:02;11.4;77.8
78522;SHT31;67819;51.972;5.678;2023-03-21T04:02:37;11.4;77.7
78522;SHT31;67819;51.972;5.678;2023-03-21T04:05:06;11.4;77.6
78522;SHT31;67819;51.972;5.678;2023-03-21T04:07:35;11.4;77.7
78522;SHT31;67819;51.972;5.678;2023-03-21T04:10:04;11.4;77.7
78522;SHT31;67819;51.972;5.678;2023-03-21T04:12:33;11.4;77.6
78522;SHT31;67819;51.972;5.678;2023-03-21T04:15:02;11.4;77.6
78522;SHT31;67819;51.972;5.678;2023-03-21T04:17:31;11.4;77.6
78522;SHT31;67819;51.972;5.678;2023-03-21T04:20:00;11.4;77.6
78522;SHT31;67819;51.972;5.678;2023-03-21T04:22:31;11.4;77.5
78522;SHT31;67819;51.972;5.678;2023-03-21T04:25:00;11.4;77.3
78522;SHT31;67819;51.972;5.678;2023-03-21T04:27:30;11.4;77.2
78522;SHT31;67819;51.972;5.678;2023-03-21T04:29:59;11.4;77.3
78522;SHT31;67819;51.972;5.678;2023-03-21T04:32:30;11.4;77.1
78522;SHT31;67819;51.972;5.678;2023-03-21T04:34:59;11.4;76.9
78522;SHT31;67819;51.972;5.678;2023-03-21T04:37:28;11.4;76.7
78522;SHT31;67819;51.972;5.678;2023-03-21T04:39:59;11.4;76.7
78522;SHT31;67819;51.972;5.678;2023-03-21T04:42:32;11.4;76.7
78522;SHT31;67819;51.972;5.678;2023-03-21T04:45:02;11.4;76.7
78522;SHT31;67819;51.972;5.678;2023-03-21T04:47:31;11.4;76.8
78522;SHT31;67819;51.972;5.678;2023-03-21T04:50:00;11.4;76.6
78522;SHT31;67819;51.972;5.678;2023-03-21T04:52:28;11.4;76.5
78522;SHT31;67819;51.972;5.678;2023-03-21T04:54:57;11.4;76.5
78522;SHT31;67819;51.972;5.678;2023-03-21T04:57:26;11.4;76.3
78522;SHT31;67819;51.972;5.678;2023-03-21T04:59:55;11.4;76.3
78522;SHT31;67819;51.972;5.678;2023-03-21T05:02:24;11.4;76.3
78522;SHT31;67819;51.972;5.678;2023-03-21T05:04:53;11.4;76.2
78522;SHT31;67819;51.972;5.678;2023-03-21T05:07:22;11.4;76.2
78522;SHT31;67819;51.972;5.678;2023-03-21T05:09:52;11.4;76.1
78522;SHT31;67819;51.972;5.678;2023-03-21T05:12:20;11.4;76.0
78522;SHT31;67819;51.972;5.678;2023-03-21T05:14:49;11.4;75.9
78522;SHT31;67819;51.972;5.678;2023-03-21T05:17:18;11.4;75.9
78522;SHT31;67819;51.972;5.678;2023-03-21T05:19:48;11.4;76.0
78522;SHT31;67819;51.972;5.678;2023-03-21T05:22:19;11.4;76.2
78522;SHT31;67819;51.972;5.678;2023-03-21T05:24:47;11.4;76.1
78522;SHT31;67819;51.972;5.678;2023-03-21T05:27:20;11.4;76.2
78522;SHT31;67819;51.972;5.678;2023-03-21T05:30:04;11.4;76.3
78522;SHT31;67819;51.972;5.678;2023-03-21T05:32:34;11.3;76.1
78522;SHT31;67819;51.972;5.678;2023-03-21T05:35:03;11.3;76.3
78522;SHT31;67819;51.972;5.678;2023-03-21T05:37:32;11.3;76.2
78522;SHT31;67819;51.972;5.678;2023-03-21T05:40:01;11.3;76.3
78522;SHT31;67819;51.972;5.678;2023-03-21T05:42:31;11.3;76.3
78522;SHT31;67819;51.972;5.678;2023-03-21T05:45:00;11.3;76.3
78522;SHT31;67819;51.972;5.678;2023-03-21T05:47:29;11.3;76.4
78522;SHT31;67819;51.972;5.678;2023-03-21T05:49:57;11.3;76.3
78522;SHT31;67819;51.972;5.678;2023-03-21T05:52:26;11.3;76.3
78522;SHT31;67819;51.972;5.678;2023-03-21T05:54:56;11.3;76.3
78522;SHT31;67819;51.972;5.678;2023-03-21T05:57:24;11.4;76.0
78522;SHT31;67819;51.972;5.678;2023-03-21T05:59:56;11.4;76.1
78522;SHT31;67819;51.972;5.678;2023-03-21T06:02:27;11.4;76.0
78522;SHT31;67819;51.972;5.678;2023-03-21T06:04:55;11.4;75.8
78522;SHT31;67819;51.972;5.678;2023-03-21T06:07:24;11.4;75.9
78522;SHT31;67819;51.972;5.678;2023-03-21T06:09:53;11.4;75.7
78522;SHT31;67819;51.972;5.678;2023-03-21T06:12:22;11.4;75.6
78522;SHT31;67819;51.972;5.678;2023-03-21T06:14:50;11.4;75.5
78522;SHT31;67819;51.972;5.678;2023-03-21T06:17:19;11.4;75.3
78522;SHT31;67819;51.972;5.678;2023-03-21T06:19:48;11.4;75.3
78522;SHT31;67819;51.972;5.678;2023-03-21T06:22:17;11.4;75.2
78522;SHT31;67819;51.972;5.678;2023-03-21T06:24:46;11.4;75.2
78522;SHT31;67819;51.972;5.678;2023-03-21T06:27:14;11.4;75.2
78522;SHT31;67819;51.972;5.678;2023-03-21T06:29:43;11.4;75.4
78522;SHT31;67819;51.972;5.678;2023-03-21T06:32:12;11.4;75.2
78522;SHT31;67819;51.972;5.678;2023-03-21T06:34:42;11.4;75.1
78522;SHT31;67819;51.972;5.678;2023-03-21T06:37:11;11.4;74.9
78522;SHT31;67819;51.972;5.678;2023-03-21T06:39:40;11.4;75.0
78522;SHT31;67819;51.972;5.678;2023-03-21T06:42:09;11.4;75.1
78522;SHT31;67819;51.972;5.678;2023-03-21T06:44:38;11.4;74.6
78522;SHT31;67819;51.972;5.678;2023-03-21T06:47:07;11.4;74.8
78522;SHT31;67819;51.972;5.678;2023-03-21T06:49:36;11.5;74.8
78522;SHT31;67819;51.972;5.678;2023-03-21T06:52:04;11.5;74.6
78522;SHT31;67819;51.972;5.678;2023-03-21T06:54:35;11.5;74.6
78522;SHT31;67819;51.972;5.678;2023-03-21T06:57:04;11.5;74.7
78522;SHT31;67819;51.972;5.678;2023-03-21T06:59:32;11.5;74.7
78522;SHT31;67819;51.972;5.678;2023-03-21T07:02:01;11.5;74.8
78522;SHT31;67819;51.972;5.678;2023-03-21T07:04:30;11.6;74.3
78522;SHT31;67819;51.972;5.678;2023-03-21T07:06:59;11.6;74.5
78522;SHT31;67819;51.972;5.678;2023-03-21T07:09:27;11.6;74.7
78522;SHT31;67819;51.972;5.678;2023-03-21T07:11:56;11.6;74.6
78522;SHT31;67819;51.972;5.678;2023-03-21T07:14:25;11.7;74.6
78522;SHT31;67819;51.972;5.678;2023-03-21T07:16:55;11.7;74.5
78522;SHT31;67819;51.972;5.678;2023-03-21T07:19:24;11.7;74.5
78522;SHT31;67819;51.972;5.678;2023-03-21T07:21:53;11.8;74.4
78522;SHT31;67819;51.972;5.678;2023-03-21T07:24:21;11.8;74.6
78522;SHT31;67819;51.972;5.678;2023-03-21T07:26:50;11.8;74.5
78522;SHT31;67819;51.972;5.678;2023-03-21T07:29:19;11.8;74.4
78522;SHT31;67819;51.972;5.678;2023-03-21T07:31:48;11.8;74.4
78522;SHT31;67819;51.972;5.678;2023-03-21T07:34:19;11.9;74.3
78522;SHT31;67819;51.972;5.678;2023-03-21T07:36:48;11.9;74.3
78522;SHT31;67819;51.972;5.678;2023-03-21T07:39:17;11.9;74.3
78522;SHT31;67819;51.972;5.678;2023-03-21T07:41:46;11.9;74.5
78522;SHT31;67819;51.972;5.678;2023-03-21T07:44:15;11.9;74.2
78522;SHT31;67819;51.972;5.678;2023-03-21T07:46:43;11.9;74.3
78522;SHT31;67819;51.972;5.678;2023-03-21T07:49:12;11.9;74.5
78522;SHT31;67819;51.972;5.678;2023-03-21T07:51:41;11.9;74.5
78522;SHT31;67819;51.972;5.678;2023-03-21T07:54:10;11.9;74.8
78522;SHT31;67819;51.972;5.678;2023-03-21T07:56:38;11.9;75.1
78522;SHT31;67819;51.972;5.678;2023-03-21T07:59:07;11.9;75.3
78522;SHT31;67819;51.972;5.678;2023-03-21T08:01:36;11.9;75.6
78522;SHT31;67819;51.972;5.678;2023-03-21T08:04:04;11.9;75.6
78522;SHT31;67819;51.972;5.678;2023-03-21T08:06:34;11.9;75.8
78522;SHT31;67819;51.972;5.678;2023-03-21T08:09:02;11.9;76.0
78522;SHT31;67819;51.972;5.678;2023-03-21T08:11:31;11.9;75.9
78522;SHT31;67819;51.972;5.678;2023-03-21T08:14:00;11.9;76.0
78522;SHT31;67819;51.972;5.678;2023-03-21T08:16:31;11.9;76.2
78522;SHT31;67819;51.972;5.678;2023-03-21T08:19:00;11.9;76.1
78522;SHT31;67819;51.972;5.678;2023-03-21T08:21:28;11.9;76.1
78522;SHT31;67819;51.972;5.678;2023-03-21T08:23:59;12.0;75.2
78522;SHT31;67819;51.972;5.678;2023-03-21T08:26:28;12.0;75.7
78522;SHT31;67819;51.972;5.678;2023-03-21T08:28:57;12.0;75.4
78522;SHT31;67819;51.972;5.678;2023-03-21T08:31:26;12.0;75.0
78522;SHT31;67819;51.972;5.678;2023-03-21T08:33:55;12.0;74.5
78522;SHT31;67819;51.972;5.678;2023-03-21T08:36:23;12.1;74.6
78522;SHT31;67819;51.972;5.678;2023-03-21T08:38:52;12.1;74.8
78522;SHT31;67819;51.972;5.678;2023-03-21T08:41:26;12.1;74.4
78522;SHT31;67819;51.972;5.678;2023-03-21T08:43:57;12.1;74.6
78522;SHT31;67819;51.972;5.678;2023-03-21T08:46:25;12.1;74.8
78522;SHT31;67819;51.972;5.678;2023-03-21T08:48:54;12.1;74.8
78522;SHT31;67819;51.972;5.678;2023-03-21T08:51:25;12.2;75.3
78522;SHT31;67819;51.972;5.678;2023-03-21T08:53:53;12.2;75.5
78522;SHT31;67819;51.972;5.678;2023-03-21T08:56:22;12.3;75.4
78522;SHT31;67819;51.972;5.678;2023-03-21T08:58:51;12.3;75.4
78522;SHT31;67819;51.972;5.678;2023-03-21T09:01:19;12.3;74.6
78522;SHT31;67819;51.972;5.678;2023-03-21T09:03:48;12.4;74.9
78522;SHT31;67819;51.972;5.678;2023-03-21T09:06:17;12.4;74.7
78522;SHT31;67819;51.972;5.678;2023-03-21T09:08:45;12.5;74.7
78522;SHT31;67819;51.972;5.678;2023-03-21T09:11:18;12.5;74.8
78522;SHT31;67819;51.972;5.678;2023-03-21T09:13:46;12.6;74.4
78522;SHT31;67819;51.972;5.678;2023-03-21T09:16:15;12.6;74.6
78522;SHT31;67819;51.972;5.678;2023-03-21T09:18:44;12.6;74.7
78522;SHT31;67819;51.972;5.678;2023-03-21T09:21:15;12.7;74.5
78522;SHT31;67819;51.972;5.678;2023-03-21T09:23:49;12.7;74.6
78522;SHT31;67819;51.972;5.678;2023-03-21T09:26:23;12.8;74.1
78522;SHT31;67819;51.972;5.678;2023-03-21T09:28:54;12.8;73.9
78522;SHT31;67819;51.972;5.678;2023-03-21T09:31:24;12.9;74.1
78522;SHT31;67819;51.972;5.678;2023-03-21T09:33:54;12.9;73.8
78522;SHT31;67819;51.972;5.678;2023-03-21T09:36:24;12.9;73.8
78522;SHT31;67819;51.972;5.678;2023-03-21T09:38:54;12.9;73.8
78522;SHT31;67819;51.972;5.678;2023-03-21T09:41:49;13.0;73.7
78522;SHT31;67819;51.972;5.678;2023-03-21T09:44:33;13.0;73.4
78522;SHT31;67819;51.972;5.678;2023-03-21T09:47:15;13.0;73.2
78522;SHT31;67819;51.972;5.678;2023-03-21T09:49:51;13.0;73.2
78522;SHT31;67819;51.972;5.678;2023-03-21T09:52:29;13.0;73.2
78522;SHT31;67819;51.972;5.678;2023-03-21T09:55:02;13.0;73.3
78522;SHT31;67819;51.972;5.678;2023-03-21T09:57:36;13.1;72.8
78522;SHT31;67819;51.972;5.678;2023-03-21T10:00:14;13.1;72.8
78522;SHT31;67819;51.972;5.678;2023-03-21T10:02:48;13.1;72.8
78522;SHT31;67819;51.972;5.678;2023-03-21T10:05:22;13.2;72.2
78522;SHT31;67819;51.972;5.678;2023-03-21T10:07:56;13.2;71.3
78522;SHT31;67819;51.972;5.678;2023-03-21T10:10:32;13.2;71.2
78522;SHT31;67819;51.972;5.678;2023-03-21T10:13:05;13.2;70.8
78522;SHT31;67819;51.972;5.678;2023-03-21T10:15:39;13.3;71.6
78522;SHT31;67819;51.972;5.678;2023-03-21T10:18:17;13.3;71.1
78522;SHT31;67819;51.972;5.678;2023-03-21T10:20:46;13.3;71.4
78522;SHT31;67819;51.972;5.678;2023-03-21T10:23:20;13.3;70.5
78522;SHT31;67819;51.972;5.678;2023-03-21T10:25:53;13.3;69.8
78522;SHT31;67819;51.972;5.678;2023-03-21T10:28:27;13.4;70.4
78522;SHT31;67819;51.972;5.678;2023-03-21T10:30:59;13.4;70.6
78522;SHT31;67819;51.972;5.678;2023-03-21T10:33:33;13.4;70.9
78522;SHT31;67819;51.972;5.678;2023-03-21T10:36:07;13.5;70.8
78522;SHT31;67819;51.972;5.678;2023-03-21T10:38:43;13.5;69.1
78522;SHT31;67819;51.972;5.678;2023-03-21T10:41:12;13.6;69.9
78522;SHT31;67819;51.972;5.678;2023-03-21T10:43:42;13.6;69.7
78522;SHT31;67819;51.972;5.678;2023-03-21T10:46:16;13.7;69.0
78522;SHT31;67819;51.972;5.678;2023-03-21T10:48:51;13.7;70.0
78522;SHT31;67819;51.972;5.678;2023-03-21T10:51:25;13.8;69.3
78522;SHT31;67819;51.972;5.678;2023-03-21T10:53:57;13.9;69.3
78522;SHT31;67819;51.972;5.678;2023-03-21T10:56:29;13.9;68.4
78522;SHT31;67819;51.972;5.678;2023-03-21T10:59:00;14.0;68.7
78522;SHT31;67819;51.972;5.678;2023-03-21T11:01:34;14.1;68.2
78522;SHT31;67819;51.972;5.678;2023-03-21T11:04:11;14.1;68.1
78522;SHT31;67819;51.972;5.678;2023-03-21T11:06:44;14.2;68.0
78522;SHT31;67819;51.972;5.678;2023-03-21T11:09:16;14.3;67.2
78522;SHT31;67819;51.972;5.678;2023-03-21T11:11:52;14.3;66.0
78522;SHT31;67819;51.972;5.678;2023-03-21T11:14:33;14.3;66.4
78522;SHT31;67819;51.972;5.678;2023-03-21T11:17:22;14.3;66.2
78522;SHT31;67819;51.972;5.678;2023-03-21T11:19:54;14.4;65.7
78522;SHT31;67819;51.972;5.678;2023-03-21T11:22:27;14.4;65.6
78522;SHT31;67819;51.972;5.678;2023-03-21T11:24:59;14.3;65.0
78522;SHT31;67819;51.972;5.678;2023-03-21T11:27:30;14.3;65.5
78522;SHT31;67819;51.972;5.678;2023-03-21T11:30:03;14.3;65.9
78522;SHT31;67819;51.972;5.678;2023-03-21T11:32:34;14.3;66.4
78522;SHT31;67819;51.972;5.678;2023-03-21T11:35:06;14.4;66.1
78522;SHT31;67819;51.972;5.678;2023-03-21T11:37:42;14.4;66.4
78522;SHT31;67819;51.972;5.678;2023-03-21T11:40:22;14.4;66.4
78522;SHT31;67819;51.972;5.678;2023-03-21T11:42:53;14.5;66.1
78522;SHT31;67819;51.972;5.678;2023-03-21T11:45:25;14.6;65.1
78522;SHT31;67819;51.972;5.678;2023-03-21T11:47:56;14.6;65.4
78522;SHT31;67819;51.972;5.678;2023-03-21T11:50:32;14.7;65.0
78522;SHT31;67819;51.972;5.678;2023-03-21T11:53:24;14.8;64.5
78522;SHT31;67819;51.972;5.678;2023-03-21T11:56:07;14.9;63.8
78522;SHT31;67819;51.972;5.678;2023-03-21T11:59:27;14.9;63.6
78522;SHT31;67819;51.972;5.678;2023-03-21T12:03:02;15.0;62.9
78522;SHT31;67819;51.972;5.678;2023-03-21T12:05:36;15.0;63.5
78522;SHT31;67819;51.972;5.678;2023-03-21T12:08:17;15.0;62.4
78522;SHT31;67819;51.972;5.678;2023-03-21T12:10:57;15.1;62.3
78522;SHT31;67819;51.972;5.678;2023-03-21T12:13:42;15.1;62.6
78522;SHT31;67819;51.972;5.678;2023-03-21T12:16:29;15.1;61.9
78522;SHT31;67819;51.972;5.678;2023-03-21T12:19:14;15.1;61.9
78522;SHT31;67819;51.972;5.678;2023-03-21T12:21:53;15.1;61.9
78522;SHT31;67819;51.972;5.678;2023-03-21T12:24:32;15.1;62.6
78522;SHT31;67819;51.972;5.678;2023-03-21T12:27:13;15.1;62.9
78522;SHT31;67819;51.972;5.678;2023-03-21T12:30:15;15.2;61.8
78522;SHT31;67819;51.972;5.678;2023-03-21T12:33:01;15.3;61.6
78522;SHT31;67819;51.972;5.678;2023-03-21T12:35:46;15.3;60.7
78522;SHT31;67819;51.972;5.678;2023-03-21T12:38:22;15.4;61.0
78522;SHT31;67819;51.972;5.678;2023-03-21T12:41:08;15.5;60.9
78522;SHT31;67819;51.972;5.678;2023-03-21T12:43:45;15.5;60.5
78522;SHT31;67819;51.972;5.678;2023-03-21T12:46:19;15.5;58.9
78522;SHT31;67819;51.972;5.678;2023-03-21T12:48:54;15.5;59.0
78522;SHT31;67819;51.972;5.678;2023-03-21T12:51:28;15.5;58.3
78522;SHT31;67819;51.972;5.678;2023-03-21T12:54:04;15.5;57.8
78522;SHT31;67819;51.972;5.678;2023-03-21T12:56:44;15.5;58.1
78522;SHT31;67819;51.972;5.678;2023-03-21T12:59:24;15.5;58.2
78522;SHT31;67819;51.972;5.678;2023-03-21T13:01:59;15.4;58.3
78522;SHT31;67819;51.972;5.678;2023-03-21T13:04:43;15.4;58.5
78522;SHT31;67819;51.972;5.678;2023-03-21T13:07:16;15.4;58.5
78522;SHT31;67819;51.972;5.678;2023-03-21T13:09:46;15.4;58.2
78522;SHT31;67819;51.972;5.678;2023-03-21T13:12:42;15.4;58.4
78522;SHT31;67819;51.972;5.678;2023-03-21T13:15:35;15.4;59.2
78522;SHT31;67819;51.972;5.678;2023-03-21T13:18:14;15.4;58.8
78522;SHT31;67819;51.972;5.678;2023-03-21T13:20:48;15.5;58.9
78522;SHT31;67819;51.972;5.678;2023-03-21T13:23:20;15.5;58.6
78522;SHT31;67819;51.972;5.678;2023-03-21T13:25:52;15.5;57.8
78522;SHT31;67819;51.972;5.678;2023-03-21T13:28:27;15.6;58.4
78522;SHT31;67819;51.972;5.678;2023-03-21T13:31:18;15.6;58.5
78522;SHT31;67819;51.972;5.678;2023-03-21T13:33:50;15.6;58.6
78522;SHT31;67819;51.972;5.678;2023-03-21T13:36:23;15.8;59.5
78522;SHT31;67819;51.972;5.678;2023-03-21T13:38:57;16.0;58.6
78522;SHT31;67819;51.972;5.678;2023-03-21T13:41:30;16.3;56.2
78522;SHT31;67819;51.972;5.678;2023-03-21T13:44:13;16.4;55.6
78522;SHT31;67819;51.972;5.678;2023-03-21T13:46:54;16.5;55.8
78522;SHT31;67819;51.972;5.678;2023-03-21T13:49:29;16.6;55.0
78522;SHT31;67819;51.972;5.678;2023-03-21T13:52:01;16.6;54.9
78522;SHT31;67819;51.972;5.678;2023-03-21T13:54:49;16.7;55.2
78522;SHT31;67819;51.972;5.678;2023-03-21T13:57:38;16.7;54.1
78522;SHT31;67819;51.972;5.678;2023-03-21T14:00:19;16.6;54.0
78522;SHT31;67819;51.972;5.678;2023-03-21T14:02:58;16.6;53.1
78522;SHT31;67819;51.972;5.678;2023-03-21T14:05:29;16.6;52.3
78522;SHT31;67819;51.972;5.678;2023-03-21T14:08:02;16.5;52.2
78522;SHT31;67819;51.972;5.678;2023-03-21T14:10:37;16.5;52.3
78522;SHT31;67819;51.972;5.678;2023-03-21T14:13:08;16.5;52.0
78522;SHT31;67819;51.972;5.678;2023-03-21T14:15:44;16.4;52.0
78522;SHT31;67819;51.972;5.678;2023-03-21T14:18:17;16.4;52.2
78522;SHT31;67819;51.972;5.678;2023-03-21T14:20:51;16.4;51.7
78522;SHT31;67819;51.972;5.678;2023-03-21T14:23:21;16.4;51.4
78522;SHT31;67819;51.972;5.678;2023-03-21T14:25:51;16.4;51.9
78522;SHT31;67819;51.972;5.678;2023-03-21T14:28:24;16.3;51.5
78522;SHT31;67819;51.972;5.678;2023-03-21T14:30:57;16.3;52.0
78522;SHT31;67819;51.972;5.678;2023-03-21T14:33:32;16.3;52.4
78522;SHT31;67819;51.972;5.678;2023-03-21T14:36:06;16.3;52.6
78522;SHT31;67819;51.972;5.678;2023-03-21T14:38:38;16.3;52.8
78522;SHT31;67819;51.972;5.678;2023-03-21T14:41:21;16.3;52.4
78522;SHT31;67819;51.972;5.678;2023-03-21T14:44:02;16.3;52.1
78522;SHT31;67819;51.972;5.678;2023-03-21T14:46:32;16.3;51.3
78522;SHT31;67819;51.972;5.678;2023-03-21T14:49:11;16.3;51.7
78522;SHT31;67819;51.972;5.678;2023-03-21T14:51:41;16.3;51.5
78522;SHT31;67819;51.972;5.678;2023-03-21T14:54:15;16.3;51.5
78522;SHT31;67819;51.972;5.678;2023-03-21T14:56:48;16.2;51.7
78522;SHT31;67819;51.972;5.678;2023-03-21T14:59:21;16.2;53.0
78522;SHT31;67819;51.972;5.678;2023-03-21T15:01:53;16.2;52.2
78522;SHT31;67819;51.972;5.678;2023-03-21T15:04:22;16.1;53.1
78522;SHT31;67819;51.972;5.678;2023-03-21T15:06:53;16.1;53.2
78522;SHT31;67819;51.972;5.678;2023-03-21T15:09:26;16.1;52.9
78522;SHT31;67819;51.972;5.678;2023-03-21T15:11:57;16.1;52.9
78522;SHT31;67819;51.972;5.678;2023-03-21T15:14:32;16.1;52.8
78522;SHT31;67819;51.972;5.678;2023-03-21T15:17:03;16.0;53.0
78522;SHT31;67819;51.972;5.678;2023-03-21T15:19:35;16.0;53.4
78522;SHT31;67819;51.972;5.678;2023-03-21T15:22:15;15.9;53.7
78522;SHT31;67819;51.972;5.678;2023-03-21T15:24:50;15.9;54.2
78522;SHT31;67819;51.972;5.678;2023-03-21T15:27:23;15.8;54.5
78522;SHT31;67819;51.972;5.678;2023-03-21T15:29:52;15.8;54.6
78522;SHT31;67819;51.972;5.678;2023-03-21T15:32:24;15.8;55.4
78522;SHT31;67819;51.972;5.678;2023-03-21T15:35:05;15.8;55.1
78522;SHT31;67819;51.972;5.678;2023-03-21T15:37:36;15.7;55.5
78522;SHT31;67819;51.972;5.678;2023-03-21T15:40:18;15.7;55.8
78522;SHT31;67819;51.972;5.678;2023-03-21T15:42:47;15.7;55.9
78522;SHT31;67819;51.972;5.678;2023-03-21T15:45:21;15.7;56.3
78522;SHT31;67819;51.972;5.678;2023-03-21T15:47:53;15.7;55.9
78522;SHT31;67819;51.972;5.678;2023-03-21T15:50:34;15.7;55.5
78522;SHT31;67819;51.972;5.678;2023-03-21T15:53:06;15.7;55.5
78522;SHT31;67819;51.972;5.678;2023-03-21T15:55:42;15.7;55.8
78522;SHT31;67819;51.972;5.678;2023-03-21T15:58:18;15.7;56.4
78522;SHT31;67819;51.972;5.678;2023-03-21T16:00:51;15.7;56.4
78522;SHT31;67819;51.972;5.678;2023-03-21T16:03:23;15.7;56.5
78522;SHT31;67819;51.972;5.678;2023-03-21T16:06:17;15.7;56.1
78522;SHT31;67819;51.972;5.678;2023-03-21T16:08:49;15.7;56.8
78522;SHT31;67819;51.972;5.678;2023-03-21T16:11:24;15.6;57.1
78522;SHT31;67819;51.972;5.678;2023-03-21T16:13:55;15.6;57.4
78522;SHT31;67819;51.972;5.678;2023-03-21T16:16:27;15.7;57.0
78522;SHT31;67819;51.972;5.678;2023-03-21T16:18:58;15.6;57.1
78522;SHT31;67819;51.972;5.678;2023-03-21T16:21:29;15.6;57.3
78522;SHT31;67819;51.972;5.678;2023-03-21T16:24:00;15.6;57.4
78522;SHT31;67819;51.972;5.678;2023-03-21T16:26:31;15.6;57.4
78522;SHT31;67819;51.972;5.678;2023-03-21T16:29:00;15.5;57.2
78522;SHT31;67819;51.972;5.678;2023-03-21T16:31:30;15.5;57.5
78522;SHT31;67819;51.972;5.678;2023-03-21T16:33:59;15.5;58.2
78522;SHT31;67819;51.972;5.678;2023-03-21T16:36:32;15.4;57.6
78522;SHT31;67819;51.972;5.678;2023-03-21T16:39:06;15.4;58.0
78522;SHT31;67819;51.972;5.678;2023-03-21T16:41:38;15.3;57.9
78522;SHT31;67819;51.972;5.678;2023-03-21T16:44:07;15.3;58.4
78522;SHT31;67819;51.972;5.678;2023-03-21T16:46:37;15.2;58.7